createdAt,value
2023-01-22T00:01:05.408Z,15.90
2023-01-22T00:03:53.697Z,15.95
2023-01-22T00:06:40.061Z,15.82
2023-01-22T00:09:26.301Z,13.88
2023-01-22T00:12:13.410Z,13.45
2023-01-22T00:15:00.494Z,13.52
2023-01-22T00:17:46.306Z,15.65
2023-01-22T00:20:33.279Z,15.57
2023-01-22T00:23:20.783Z,15.98
2023-01-22T00:26:12.625Z,16.33
2023-01-22T00:29:00.102Z,15.75
2023-01-22T00:31:47.303Z,13.13
2023-01-22T00:34:36.555Z,14.07
2023-01-22T00:37:22.823Z,13.18
2023-01-22T00:40:09.552Z,13.57
2023-01-22T00:42:56.193Z,15.80
2023-01-22T00:45:43.437Z,15.07
2023-01-22T00:48:29.942Z,15.50
2023-01-22T00:51:16.429Z,14.50
2023-01-22T00:54:03.030Z,13.18
2023-01-22T00:56:48.847Z,14.80
2023-01-22T00:59:34.725Z,13.20
2023-01-22T01:02:21.159Z,14.43
2023-01-22T01:05:07.805Z,16.35
2023-01-22T01:07:54.119Z,14.95
2023-01-22T01:10:40.175Z,15.30
2023-01-22T01:13:32.106Z,15.10
2023-01-22T01:16:19.675Z,15.80
2023-01-22T01:19:10.231Z,14.98
2023-01-22T01:21:56.970Z,14.60
2023-01-22T01:24:43.162Z,13.68
2023-01-22T01:27:31.635Z,14.30
2023-01-22T01:30:18.274Z,15.27
2023-01-22T01:33:05.442Z,15.45
2023-01-22T01:36:03.593Z,12.73
2023-01-22T01:38:49.636Z,13.93
2023-01-22T01:41:36.319Z,16.63
2023-01-22T01:44:24.707Z,15.05
2023-01-22T01:47:32.467Z,15.13
2023-01-22T01:50:20.789Z,15.05
2023-01-22T01:53:08.157Z,17.05
2023-01-22T01:55:57.022Z,14.25
2023-01-22T01:58:45.995Z,13.50
2023-01-22T02:01:33.502Z,14.30
2023-01-22T02:04:20.509Z,14.52
2023-01-22T02:08:04.579Z,12.00
2023-01-22T02:10:25.022Z,13.40
2023-01-22T02:13:18.081Z,14.30
2023-01-22T02:19:21.416Z,14.52
2023-01-22T02:22:25.613Z,14.77
2023-01-22T02:25:12.477Z,14.65
2023-01-22T02:27:58.793Z,15.40
2023-01-22T02:30:45.597Z,14.73
2023-01-22T02:33:34.329Z,16.42
2023-01-22T02:36:21.735Z,15.23
2023-01-22T02:39:11.207Z,15.52
2023-01-22T02:41:58.441Z,14.50
2023-01-22T02:44:44.800Z,13.75
2023-01-22T02:47:31.710Z,15.27
2023-01-22T02:50:18.974Z,15.65
2023-01-22T02:53:05.405Z,14.93
2023-01-22T02:55:51.847Z,14.95
2023-01-22T02:58:38.459Z,14.48
2023-01-22T03:01:26.052Z,14.00
2023-01-22T03:04:13.668Z,14.75
2023-01-22T03:07:00.593Z,14.60
2023-01-22T03:09:47.925Z,15.43
2023-01-22T03:12:52.672Z,16.27
2023-01-22T03:15:58.224Z,15.70
2023-01-22T03:19:03.137Z,16.88
2023-01-22T03:21:53.328Z,16.98
2023-01-22T03:24:42.996Z,17.23
2023-01-22T03:27:31.455Z,17.55
2023-01-22T03:30:18.172Z,17.10
2023-01-22T03:33:04.341Z,15.65
2023-01-22T03:35:51.075Z,16.80
2023-01-22T03:38:43.052Z,16.85
2023-01-22T03:41:33.679Z,15.50
2023-01-22T03:44:20.749Z,15.77
2023-01-22T03:47:07.755Z,16.60
2023-01-22T03:49:54.283Z,17.00
2023-01-22T03:52:40.753Z,15.38
2023-01-22T03:55:26.976Z,15.38
2023-01-22T03:58:13.887Z,16.13
2023-01-22T04:01:04.938Z,16.42
2023-01-22T04:03:52.272Z,16.20
2023-01-22T04:06:40.634Z,17.10
2023-01-22T04:09:27.058Z,15.38
2023-01-22T04:12:14.027Z,17.50
2023-01-22T04:15:01.677Z,19.17
2023-01-22T04:17:48.272Z,16.77
2023-01-22T04:20:59.494Z,17.08
2023-01-22T04:23:54.173Z,19.10
2023-01-22T04:26:40.404Z,19.38
2023-01-22T04:29:27.100Z,18.73
2023-01-22T04:32:13.966Z,16.75
2023-01-22T04:35:21.975Z,18.13
2023-01-22T04:38:13.756Z,17.02
2023-01-22T04:41:01.030Z,18.13
2023-01-22T04:43:50.214Z,17.88
2023-01-22T04:46:38.864Z,19.15
2023-01-22T04:49:25.301Z,17.00
2023-01-22T04:52:12.733Z,18.10
2023-01-22T04:54:59.285Z,16.67
2023-01-22T04:58:00.770Z,17.55
2023-01-22T05:00:47.568Z,18.30
2023-01-22T05:03:34.254Z,18.73
2023-01-22T05:06:21.796Z,20.00
2023-01-22T05:09:07.764Z,19.08
2023-01-22T05:12:09.189Z,17.85
2023-01-22T05:14:59.711Z,18.27
2023-01-22T05:17:46.318Z,19.38
2023-01-22T05:20:34.186Z,18.23
2023-01-22T05:23:21.132Z,18.80
2023-01-22T05:26:07.352Z,18.35
2023-01-22T05:29:16.573Z,18.50
2023-01-22T05:35:13.305Z,17.25
2023-01-22T05:38:00.038Z,16.48
2023-01-22T05:40:46.478Z,18.95
2023-01-22T05:43:38.246Z,18.52
2023-01-22T05:46:26.775Z,17.67
2023-01-22T05:49:24.734Z,17.25
2023-01-22T05:52:14.800Z,17.45
2023-01-22T05:55:01.942Z,17.10
2023-01-22T05:57:53.992Z,15.85
2023-01-22T06:00:40.513Z,17.63
2023-01-22T06:03:29.199Z,17.58
2023-01-22T06:06:15.877Z,16.80
2023-01-22T06:09:03.132Z,17.10
2023-01-22T06:11:53.947Z,17.33
2023-01-22T06:14:40.526Z,16.58
2023-01-22T06:17:26.827Z,17.63
2023-01-22T06:20:15.408Z,16.45
2023-01-22T06:23:01.619Z,17.30
2023-01-22T06:25:54.188Z,16.70
2023-01-22T06:28:40.490Z,16.80
2023-01-22T06:31:26.804Z,16.25
2023-01-22T06:34:13.049Z,17.55
2023-01-22T06:36:59.000Z,15.90
2023-01-22T06:39:49.069Z,18.17
2023-01-22T06:42:42.559Z,17.40
2023-01-22T06:45:28.931Z,18.25
2023-01-22T06:48:19.152Z,19.42
2023-01-22T06:51:05.307Z,18.63
2023-01-22T06:53:51.441Z,15.43
2023-01-22T06:56:39.905Z,16.70
2023-01-22T06:59:26.583Z,16.17
2023-01-22T07:02:17.588Z,18.30
2023-01-22T07:05:03.559Z,19.63
2023-01-22T07:07:52.393Z,19.70
2023-01-22T07:10:38.525Z,18.60
2023-01-22T07:13:24.372Z,20.30
2023-01-22T07:16:11.097Z,19.33
2023-01-22T07:18:57.523Z,17.75
2023-01-22T07:21:43.496Z,16.23
2023-01-22T07:24:29.446Z,14.70
2023-01-22T07:27:15.526Z,17.35
2023-01-22T07:30:01.365Z,15.60
2023-01-22T07:32:47.642Z,16.55
2023-01-22T07:35:33.643Z,16.52
2023-01-22T07:38:19.663Z,16.90
2023-01-22T07:41:16.927Z,16.95
2023-01-22T07:44:09.791Z,17.45
2023-01-22T07:46:55.867Z,14.75
2023-01-22T07:49:42.409Z,17.45
2023-01-22T07:52:28.324Z,15.43
2023-01-22T07:55:14.806Z,17.63
2023-01-22T07:58:06.295Z,15.98
2023-01-22T08:00:52.528Z,16.63
2023-01-22T08:03:39.139Z,17.13
2023-01-22T08:06:25.597Z,16.05
2023-01-22T08:09:11.726Z,14.73
2023-01-22T08:11:57.684Z,15.23
2023-01-22T08:14:48.603Z,16.23
2023-01-22T08:17:38.920Z,15.57
2023-01-22T08:20:25.743Z,15.23
2023-01-22T08:23:11.630Z,16.88
2023-01-22T08:26:03.985Z,16.00
2023-01-22T08:28:50.433Z,16.10
2023-01-22T08:31:36.762Z,14.63
2023-01-22T08:34:23.054Z,15.70
2023-01-22T08:37:09.408Z,14.18
2023-01-22T08:39:56.156Z,15.50
2023-01-22T08:43:05.143Z,14.00
2023-01-22T08:45:51.927Z,13.93
2023-01-22T08:48:39.852Z,16.60
2023-01-22T08:51:26.929Z,14.98
2023-01-22T08:54:13.375Z,14.35
2023-01-22T09:28:06.048Z,12.48
2023-01-22T09:30:07.537Z,14.98
2023-01-22T09:32:53.619Z,12.77
2023-01-22T09:39:20.244Z,15.27
2023-01-22T09:42:20.502Z,14.05
2023-01-22T09:45:15.663Z,13.45
2023-01-22T09:48:09.054Z,13.02
2023-01-22T09:51:01.824Z,14.57
2023-01-22T09:53:59.728Z,15.38
2023-01-22T09:56:51.095Z,14.55
2023-01-22T09:59:51.471Z,15.32
2023-01-22T10:02:42.511Z,18.17
2023-01-22T10:05:43.335Z,14.77
2023-01-22T10:08:34.437Z,14.55
2023-01-22T10:11:24.161Z,16.02
2023-01-22T10:14:18.935Z,16.20
2023-01-22T10:20:09.995Z,17.67
2023-01-22T10:23:08.786Z,17.43
2023-01-22T10:26:35.725Z,17.77
2023-01-22T10:29:36.316Z,18.90
2023-01-22T10:32:25.341Z,19.67
2023-01-22T10:35:11.455Z,22.85
2023-01-22T10:38:02.082Z,24.27
2023-01-22T10:40:58.296Z,24.38
2023-01-22T10:43:48.223Z,32.92
2023-01-22T10:46:34.515Z,36.05
2023-01-22T10:49:27.563Z,37.45
2023-01-22T10:52:31.228Z,35.45
2023-01-22T10:55:41.916Z,37.42
2023-01-22T10:58:32.925Z,35.42
2023-01-22T11:01:34.468Z,38.38
2023-01-22T11:04:27.834Z,38.17
2023-01-22T11:07:19.073Z,37.25
2023-01-22T11:10:39.654Z,37.90
2023-01-22T11:14:03.718Z,35.75
2023-01-22T11:16:55.423Z,33.35
2023-01-22T11:20:00.489Z,35.03
2023-01-22T11:23:14.559Z,33.95
2023-01-22T11:26:16.954Z,30.65
2023-01-22T11:29:29.813Z,32.25
2023-01-22T11:32:46.766Z,29.85
2023-01-22T11:35:41.651Z,29.42
2023-01-22T11:38:45.912Z,30.33
2023-01-22T11:42:25.706Z,28.00
2023-01-22T11:45:31.361Z,30.33
2023-01-22T11:48:46.885Z,29.70
2023-01-22T11:51:39.401Z,28.85
2023-01-22T11:54:47.358Z,29.35
2023-01-22T11:57:41.824Z,28.30
2023-01-22T12:00:40.497Z,28.20
2023-01-22T12:04:05.242Z,28.83
2023-01-22T12:07:11.760Z,28.73
2023-01-22T12:10:06.773Z,27.27
2023-01-22T12:13:00.155Z,26.02
2023-01-22T12:16:07.808Z,22.53
2023-01-22T12:19:15.043Z,24.08
2023-01-22T12:22:05.931Z,16.52
2023-01-22T12:24:58.998Z,14.00
2023-01-22T12:28:00.108Z,11.43
2023-01-22T12:31:15.951Z,12.02
2023-01-22T12:34:10.375Z,13.70
2023-01-22T12:37:02.515Z,10.85
2023-01-22T12:40:07.573Z,10.02
2023-01-22T12:43:06.231Z,13.98
2023-01-22T12:46:03.795Z,13.13
2023-01-22T12:49:08.677Z,13.98
2023-01-22T12:51:56.445Z,13.85
2023-01-22T12:54:42.642Z,15.23
2023-01-22T12:57:48.191Z,18.80
